sensor_id;sensor_type;location;lat;lon;timestamp;P1;durP1;ratioP1;P2;durP2;ratioP2
70388;SDS011;58659;49.050;8.530;2023-06-26T00:01:28;4.77;;;2.53;;
70388;SDS011;58659;49.050;8.530;2023-06-26T00:03:57;5.73;;;2.73;;
70388;SDS011;58659;49.050;8.530;2023-06-26T00:06:23;5.63;;;3.00;;
70388;SDS011;58659;49.050;8.530;2023-06-26T00:08:50;5.60;;;2.73;;
70388;SDS011;58659;49.050;8.530;2023-06-26T00:11:16;6.13;;;3.10;;
70388;SDS011;58659;49.050;8.530;2023-06-26T00:13:42;5.07;;;2.57;;
70388;SDS011;58659;49.050;8.530;2023-06-26T00:16:07;6.07;;;2.33;;
70388;SDS011;58659;49.050;8.530;2023-06-26T00:18:32;5.23;;;2.80;;
70388;SDS011;58659;49.050;8.530;2023-06-26T00:20:58;4.27;;;2.50;;
70388;SDS011;58659;49.050;8.530;2023-06-26T00:23:23;5.33;;;2.70;;
70388;SDS011;58659;49.050;8.530;2023-06-26T00:25:48;8.10;;;3.20;;
70388;SDS011;58659;49.050;8.530;2023-06-26T00:28:13;5.07;;;2.73;;
70388;SDS011;58659;49.050;8.530;2023-06-26T00:30:39;8.43;;;3.07;;
70388;SDS011;58659;49.050;8.530;2023-06-26T00:33:04;5.57;;;2.67;;
70388;SDS011;58659;49.050;8.530;2023-06-26T00:35:29;7.37;;;3.00;;
70388;SDS011;58659;49.050;8.530;2023-06-26T00:37:55;6.57;;;3.07;;
70388;SDS011;58659;49.050;8.530;2023-06-26T00:40:20;5.93;;;2.60;;
70388;SDS011;58659;49.050;8.530;2023-06-26T00:42:45;6.90;;;2.90;;
70388;SDS011;58659;49.050;8.530;2023-06-26T00:45:11;5.93;;;2.93;;
70388;SDS011;58659;49.050;8.530;2023-06-26T00:47:36;4.27;;;2.47;;
70388;SDS011;58659;49.050;8.530;2023-06-26T00:50:02;6.43;;;2.83;;
70388;SDS011;58659;49.050;8.530;2023-06-26T00:52:28;6.13;;;3.03;;
70388;SDS011;58659;49.050;8.530;2023-06-26T00:54:54;6.50;;;2.77;;
70388;SDS011;58659;49.050;8.530;2023-06-26T00:57:20;4.27;;;2.60;;
70388;SDS011;58659;49.050;8.530;2023-06-26T00:59:46;6.93;;;2.70;;
70388;SDS011;58659;49.050;8.530;2023-06-26T01:02:11;5.80;;;2.80;;
70388;SDS011;58659;49.050;8.530;2023-06-26T01:04:36;5.97;;;2.50;;
70388;SDS011;58659;49.050;8.530;2023-06-26T01:07:02;7.77;;;2.80;;
70388;SDS011;58659;49.050;8.530;2023-06-26T01:11:54;6.33;;;2.90;;
70388;SDS011;58659;49.050;8.530;2023-06-26T01:14:19;4.27;;;2.60;;
70388;SDS011;58659;49.050;8.530;2023-06-26T01:16:45;8.17;;;3.07;;
70388;SDS011;58659;49.050;8.530;2023-06-26T01:19:45;5.77;;;2.77;;
70388;SDS011;58659;49.050;8.530;2023-06-26T01:24:39;6.17;;;2.80;;
70388;SDS011;58659;49.050;8.530;2023-06-26T01:27:07;5.73;;;2.60;;
70388;SDS011;58659;49.050;8.530;2023-06-26T01:29:33;6.00;;;3.17;;
70388;SDS011;58659;49.050;8.530;2023-06-26T01:31:59;6.17;;;2.90;;
70388;SDS011;58659;49.050;8.530;2023-06-26T01:34:25;8.70;;;3.10;;
70388;SDS011;58659;49.050;8.530;2023-06-26T01:36:51;6.20;;;3.10;;
70388;SDS011;58659;49.050;8.530;2023-06-26T01:39:18;4.63;;;2.93;;
70388;SDS011;58659;49.050;8.530;2023-06-26T01:41:44;5.10;;;2.80;;
70388;SDS011;58659;49.050;8.530;2023-06-26T01:47:00;5.87;;;3.00;;
70388;SDS011;58659;49.050;8.530;2023-06-26T01:49:31;7.30;;;2.73;;
70388;SDS011;58659;49.050;8.530;2023-06-26T01:52:06;6.27;;;2.90;;
70388;SDS011;58659;49.050;8.530;2023-06-26T01:54:33;5.47;;;2.90;;
70388;SDS011;58659;49.050;8.530;2023-06-26T01:57:07;6.00;;;3.10;;
70388;SDS011;58659;49.050;8.530;2023-06-26T01:59:34;8.60;;;3.60;;
70388;SDS011;58659;49.050;8.530;2023-06-26T02:02:06;6.13;;;3.20;;
70388;SDS011;58659;49.050;8.530;2023-06-26T02:04:32;5.57;;;2.93;;
70388;SDS011;58659;49.050;8.530;2023-06-26T02:06:57;6.90;;;3.17;;
70388;SDS011;58659;49.050;8.530;2023-06-26T02:09:22;8.40;;;2.80;;
70388;SDS011;58659;49.050;8.530;2023-06-26T02:11:48;10.37;;;3.37;;
70388;SDS011;58659;49.050;8.530;2023-06-26T02:14:13;7.77;;;3.07;;
70388;SDS011;58659;49.050;8.530;2023-06-26T02:16:38;5.20;;;2.70;;
70388;SDS011;58659;49.050;8.530;2023-06-26T02:19:03;7.63;;;3.43;;
70388;SDS011;58659;49.050;8.530;2023-06-26T02:21:29;7.07;;;3.07;;
70388;SDS011;58659;49.050;8.530;2023-06-26T02:23:54;5.93;;;2.67;;
70388;SDS011;58659;49.050;8.530;2023-06-26T02:26:19;6.43;;;3.03;;
70388;SDS011;58659;49.050;8.530;2023-06-26T02:28:45;8.00;;;3.30;;
70388;SDS011;58659;49.050;8.530;2023-06-26T02:31:11;5.77;;;2.93;;
70388;SDS011;58659;49.050;8.530;2023-06-26T02:33:36;7.20;;;2.97;;
70388;SDS011;58659;49.050;8.530;2023-06-26T02:36:01;7.73;;;2.90;;
70388;SDS011;58659;49.050;8.530;2023-06-26T02:38:27;5.37;;;2.90;;
70388;SDS011;58659;49.050;8.530;2023-06-26T02:40:52;5.33;;;2.90;;
70388;SDS011;58659;49.050;8.530;2023-06-26T02:43:21;6.97;;;3.07;;
70388;SDS011;58659;49.050;8.530;2023-06-26T02:45:46;6.70;;;3.40;;
70388;SDS011;58659;49.050;8.530;2023-06-26T02:48:11;8.53;;;2.60;;
70388;SDS011;58659;49.050;8.530;2023-06-26T02:50:36;5.83;;;3.00;;
70388;SDS011;58659;49.050;8.530;2023-06-26T02:53:02;6.13;;;3.13;;
70388;SDS011;58659;49.050;8.530;2023-06-26T02:55:27;5.03;;;2.77;;
70388;SDS011;58659;49.050;8.530;2023-06-26T02:57:52;6.83;;;2.60;;
70388;SDS011;58659;49.050;8.530;2023-06-26T03:00:18;6.83;;;3.13;;
70388;SDS011;58659;49.050;8.530;2023-06-26T03:02:43;5.20;;;2.80;;
70388;SDS011;58659;49.050;8.530;2023-06-26T03:05:08;7.60;;;2.77;;
70388;SDS011;58659;49.050;8.530;2023-06-26T03:07:34;7.67;;;3.00;;
70388;SDS011;58659;49.050;8.530;2023-06-26T03:09:59;6.03;;;3.03;;
70388;SDS011;58659;49.050;8.530;2023-06-26T03:12:25;5.95;;;3.00;;
70388;SDS011;58659;49.050;8.530;2023-06-26T03:14:50;4.63;;;2.50;;
70388;SDS011;58659;49.050;8.530;2023-06-26T03:17:16;6.23;;;3.00;;
70388;SDS011;58659;49.050;8.530;2023-06-26T03:19:41;6.40;;;3.10;;
70388;SDS011;58659;49.050;8.530;2023-06-26T03:22:07;7.50;;;3.13;;
70388;SDS011;58659;49.050;8.530;2023-06-26T03:24:32;8.00;;;3.07;;
70388;SDS011;58659;49.050;8.530;2023-06-26T03:26:58;5.73;;;2.83;;
70388;SDS011;58659;49.050;8.530;2023-06-26T03:29:24;7.03;;;3.10;;
70388;SDS011;58659;49.050;8.530;2023-06-26T03:31:49;7.23;;;2.97;;
70388;SDS011;58659;49.050;8.530;2023-06-26T03:34:14;6.50;;;3.17;;
70388;SDS011;58659;49.050;8.530;2023-06-26T03:36:40;6.00;;;3.17;;
70388;SDS011;58659;49.050;8.530;2023-06-26T03:39:06;5.20;;;2.67;;
70388;SDS011;58659;49.050;8.530;2023-06-26T03:41:31;7.10;;;3.30;;
70388;SDS011;58659;49.050;8.530;2023-06-26T03:43:56;5.83;;;3.10;;
70388;SDS011;58659;49.050;8.530;2023-06-26T03:46:22;7.87;;;3.70;;
70388;SDS011;58659;49.050;8.530;2023-06-26T03:48:47;6.70;;;3.43;;
70388;SDS011;58659;49.050;8.530;2023-06-26T03:51:13;5.47;;;3.00;;
70388;SDS011;58659;49.050;8.530;2023-06-26T03:53:39;6.67;;;3.33;;
70388;SDS011;58659;49.050;8.530;2023-06-26T03:56:04;6.67;;;3.70;;
70388;SDS011;58659;49.050;8.530;2023-06-26T03:58:29;5.50;;;2.70;;
70388;SDS011;58659;49.050;8.530;2023-06-26T04:00:55;5.43;;;2.70;;
70388;SDS011;58659;49.050;8.530;2023-06-26T04:03:21;7.20;;;3.27;;
70388;SDS011;58659;49.050;8.530;2023-06-26T04:05:47;7.60;;;2.80;;
70388;SDS011;58659;49.050;8.530;2023-06-26T04:08:12;6.50;;;3.10;;
70388;SDS011;58659;49.050;8.530;2023-06-26T04:10:38;5.60;;;3.03;;
70388;SDS011;58659;49.050;8.530;2023-06-26T04:13:03;5.90;;;2.80;;
70388;SDS011;58659;49.050;8.530;2023-06-26T04:15:28;6.80;;;2.90;;
70388;SDS011;58659;49.050;8.530;2023-06-26T04:17:54;7.10;;;2.60;;
70388;SDS011;58659;49.050;8.530;2023-06-26T04:20:19;6.07;;;3.00;;
70388;SDS011;58659;49.050;8.530;2023-06-26T04:22:44;5.83;;;2.70;;
70388;SDS011;58659;49.050;8.530;2023-06-26T04:25:09;6.60;;;3.27;;
70388;SDS011;58659;49.050;8.530;2023-06-26T04:27:36;8.23;;;3.87;;
70388;SDS011;58659;49.050;8.530;2023-06-26T04:30:02;6.50;;;2.77;;
70388;SDS011;58659;49.050;8.530;2023-06-26T04:32:28;4.87;;;2.90;;
70388;SDS011;58659;49.050;8.530;2023-06-26T04:34:53;7.47;;;2.87;;
70388;SDS011;58659;49.050;8.530;2023-06-26T04:37:18;9.83;;;3.30;;
70388;SDS011;58659;49.050;8.530;2023-06-26T04:39:44;6.17;;;2.50;;
70388;SDS011;58659;49.050;8.530;2023-06-26T04:42:09;7.87;;;3.30;;
70388;SDS011;58659;49.050;8.530;2023-06-26T04:44:37;5.03;;;2.60;;
70388;SDS011;58659;49.050;8.530;2023-06-26T04:47:02;5.03;;;2.40;;
70388;SDS011;58659;49.050;8.530;2023-06-26T04:49:28;9.43;;;3.00;;
70388;SDS011;58659;49.050;8.530;2023-06-26T04:51:55;6.00;;;2.60;;
70388;SDS011;58659;49.050;8.530;2023-06-26T05:01:38;8.33;;;3.20;;
70388;SDS011;58659;49.050;8.530;2023-06-26T05:04:04;3.70;;;2.53;;
70388;SDS011;58659;49.050;8.530;2023-06-26T05:06:30;6.17;;;3.00;;
70388;SDS011;58659;49.050;8.530;2023-06-26T05:08:55;6.80;;;2.93;;
70388;SDS011;58659;49.050;8.530;2023-06-26T05:11:21;7.17;;;3.43;;
70388;SDS011;58659;49.050;8.530;2023-06-26T05:13:46;5.23;;;2.70;;
70388;SDS011;58659;49.050;8.530;2023-06-26T05:16:11;9.67;;;3.23;;
70388;SDS011;58659;49.050;8.530;2023-06-26T05:18:37;4.93;;;2.53;;
70388;SDS011;58659;49.050;8.530;2023-06-26T05:21:02;9.00;;;3.10;;
70388;SDS011;58659;49.050;8.530;2023-06-26T05:23:32;4.20;;;2.47;;
70388;SDS011;58659;49.050;8.530;2023-06-26T05:25:58;8.40;;;3.00;;
70388;SDS011;58659;49.050;8.530;2023-06-26T05:28:24;8.80;;;3.20;;
70388;SDS011;58659;49.050;8.530;2023-06-26T05:30:51;7.07;;;2.97;;
70388;SDS011;58659;49.050;8.530;2023-06-26T05:33:17;6.63;;;3.27;;
70388;SDS011;58659;49.050;8.530;2023-06-26T05:35:44;9.00;;;3.40;;
70388;SDS011;58659;49.050;8.530;2023-06-26T05:38:10;6.20;;;2.90;;
70388;SDS011;58659;49.050;8.530;2023-06-26T05:40:36;5.70;;;3.10;;
70388;SDS011;58659;49.050;8.530;2023-06-26T05:43:01;5.70;;;3.00;;
70388;SDS011;58659;49.050;8.530;2023-06-26T05:45:27;6.03;;;3.30;;
70388;SDS011;58659;49.050;8.530;2023-06-26T05:47:52;5.97;;;3.00;;
70388;SDS011;58659;49.050;8.530;2023-06-26T05:50:18;10.63;;;2.77;;
70388;SDS011;58659;49.050;8.530;2023-06-26T05:52:44;8.27;;;2.77;;
70388;SDS011;58659;49.050;8.530;2023-06-26T05:55:10;7.63;;;3.30;;
70388;SDS011;58659;49.050;8.530;2023-06-26T05:57:36;7.20;;;3.73;;
70388;SDS011;58659;49.050;8.530;2023-06-26T06:00:03;5.47;;;2.70;;
70388;SDS011;58659;49.050;8.530;2023-06-26T06:02:30;4.27;;;2.57;;
70388;SDS011;58659;49.050;8.530;2023-06-26T06:04:56;4.90;;;3.10;;
70388;SDS011;58659;49.050;8.530;2023-06-26T06:07:21;6.53;;;2.90;;
70388;SDS011;58659;49.050;8.530;2023-06-26T06:09:47;8.07;;;3.50;;
70388;SDS011;58659;49.050;8.530;2023-06-26T06:12:12;6.97;;;3.40;;
70388;SDS011;58659;49.050;8.530;2023-06-26T06:14:38;7.40;;;2.90;;
70388;SDS011;58659;49.050;8.530;2023-06-26T06:17:03;17.63;;;3.60;;
70388;SDS011;58659;49.050;8.530;2023-06-26T06:19:28;7.13;;;3.07;;
70388;SDS011;58659;49.050;8.530;2023-06-26T06:21:54;6.47;;;3.57;;
70388;SDS011;58659;49.050;8.530;2023-06-26T06:24:19;9.27;;;3.97;;
70388;SDS011;58659;49.050;8.530;2023-06-26T06:26:45;7.37;;;3.20;;
70388;SDS011;58659;49.050;8.530;2023-06-26T06:29:10;6.70;;;2.70;;
70388;SDS011;58659;49.050;8.530;2023-06-26T06:31:36;8.00;;;2.90;;
70388;SDS011;58659;49.050;8.530;2023-06-26T06:34:01;4.80;;;2.70;;
70388;SDS011;58659;49.050;8.530;2023-06-26T06:36:27;4.35;;;2.85;;
70388;SDS011;58659;49.050;8.530;2023-06-26T06:38:52;5.68;;;2.92;;
70388;SDS011;58659;49.050;8.530;2023-06-26T06:41:19;7.60;;;2.92;;
70388;SDS011;58659;49.050;8.530;2023-06-26T06:43:45;6.18;;;3.03;;
70388;SDS011;58659;49.050;8.530;2023-06-26T06:46:10;6.70;;;3.10;;
70388;SDS011;58659;49.050;8.530;2023-06-26T06:48:36;5.23;;;3.30;;
70388;SDS011;58659;49.050;8.530;2023-06-26T06:51:01;4.82;;;2.60;;
70388;SDS011;58659;49.050;8.530;2023-06-26T06:53:27;7.78;;;3.22;;
70388;SDS011;58659;49.050;8.530;2023-06-26T06:55:52;6.70;;;3.03;;
70388;SDS011;58659;49.050;8.530;2023-06-26T06:58:17;6.15;;;3.03;;
70388;SDS011;58659;49.050;8.530;2023-06-26T07:00:45;4.75;;;2.65;;
70388;SDS011;58659;49.050;8.530;2023-06-26T07:03:11;6.32;;;3.53;;
70388;SDS011;58659;49.050;8.530;2023-06-26T07:05:36;6.05;;;3.10;;
70388;SDS011;58659;49.050;8.530;2023-06-26T07:08:02;5.95;;;2.72;;
70388;SDS011;58659;49.050;8.530;2023-06-26T07:10:28;4.82;;;2.70;;
70388;SDS011;58659;49.050;8.530;2023-06-26T07:12:53;5.93;;;3.20;;
70388;SDS011;58659;49.050;8.530;2023-06-26T07:15:19;5.72;;;2.53;;
70388;SDS011;58659;49.050;8.530;2023-06-26T07:17:44;3.72;;;2.42;;
70388;SDS011;58659;49.050;8.530;2023-06-26T07:20:09;4.43;;;2.70;;
70388;SDS011;58659;49.050;8.530;2023-06-26T07:25:28;5.38;;;3.17;;
70388;SDS011;58659;49.050;8.530;2023-06-26T07:27:56;4.93;;;2.95;;
70388;SDS011;58659;49.050;8.530;2023-06-26T07:30:22;4.55;;;3.10;;
70388;SDS011;58659;49.050;8.530;2023-06-26T07:32:49;5.15;;;2.80;;
70388;SDS011;58659;49.050;8.530;2023-06-26T07:35:14;4.07;;;2.70;;
70388;SDS011;58659;49.050;8.530;2023-06-26T07:37:40;6.25;;;2.80;;
70388;SDS011;58659;49.050;8.530;2023-06-26T07:40:06;4.28;;;2.50;;
70388;SDS011;58659;49.050;8.530;2023-06-26T07:42:32;5.88;;;3.35;;
70388;SDS011;58659;49.050;8.530;2023-06-26T07:44:57;6.40;;;3.10;;
70388;SDS011;58659;49.050;8.530;2023-06-26T07:47:22;4.50;;;2.75;;
70388;SDS011;58659;49.050;8.530;2023-06-26T07:49:48;4.53;;;3.03;;
70388;SDS011;58659;49.050;8.530;2023-06-26T07:52:14;5.65;;;2.97;;
70388;SDS011;58659;49.050;8.530;2023-06-26T07:54:40;4.88;;;2.60;;
70388;SDS011;58659;49.050;8.530;2023-06-26T07:57:05;3.75;;;2.70;;
70388;SDS011;58659;49.050;8.530;2023-06-26T07:59:34;5.57;;;3.05;;
70388;SDS011;58659;49.050;8.530;2023-06-26T08:02:00;5.18;;;2.80;;
70388;SDS011;58659;49.050;8.530;2023-06-26T08:04:27;5.05;;;2.60;;
70388;SDS011;58659;49.050;8.530;2023-06-26T08:06:54;7.65;;;2.58;;
70388;SDS011;58659;49.050;8.530;2023-06-26T08:09:21;9.82;;;2.90;;
70388;SDS011;58659;49.050;8.530;2023-06-26T08:11:48;6.00;;;2.63;;
70388;SDS011;58659;49.050;8.530;2023-06-26T08:14:14;4.45;;;2.70;;
70388;SDS011;58659;49.050;8.530;2023-06-26T08:16:40;4.32;;;2.83;;
70388;SDS011;58659;49.050;8.530;2023-06-26T08:19:07;3.40;;;2.30;;
70388;SDS011;58659;49.050;8.530;2023-06-26T08:21:33;5.15;;;2.33;;
70388;SDS011;58659;49.050;8.530;2023-06-26T08:23:58;4.22;;;2.40;;
70388;SDS011;58659;49.050;8.530;2023-06-26T08:26:24;4.50;;;2.90;;
70388;SDS011;58659;49.050;8.530;2023-06-26T08:28:49;3.75;;;2.50;;
70388;SDS011;58659;49.050;8.530;2023-06-26T08:31:15;4.15;;;2.42;;
70388;SDS011;58659;49.050;8.530;2023-06-26T08:33:41;7.55;;;3.92;;
70388;SDS011;58659;49.050;8.530;2023-06-26T08:36:06;4.43;;;3.10;;
70388;SDS011;58659;49.050;8.530;2023-06-26T08:38:31;4.00;;;2.80;;
70388;SDS011;58659;49.050;8.530;2023-06-26T08:40:58;4.35;;;2.78;;
70388;SDS011;58659;49.050;8.530;2023-06-26T08:43:23;5.68;;;2.67;;
70388;SDS011;58659;49.050;8.530;2023-06-26T08:45:49;4.13;;;2.83;;
70388;SDS011;58659;49.050;8.530;2023-06-26T08:48:17;4.45;;;2.90;;
70388;SDS011;58659;49.050;8.530;2023-06-26T08:50:42;4.53;;;2.78;;
70388;SDS011;58659;49.050;8.530;2023-06-26T08:53:10;4.18;;;2.60;;
70388;SDS011;58659;49.050;8.530;2023-06-26T08:55:40;5.95;;;2.80;;
70388;SDS011;58659;49.050;8.530;2023-06-26T08:58:07;5.88;;;3.80;;
70388;SDS011;58659;49.050;8.530;2023-06-26T09:00:32;4.82;;;3.10;;
70388;SDS011;58659;49.050;8.530;2023-06-26T09:12:46;4.82;;;3.05;;
70388;SDS011;58659;49.050;8.530;2023-06-26T09:15:14;4.57;;;2.70;;
70388;SDS011;58659;49.050;8.530;2023-06-26T09:17:40;5.40;;;2.97;;
70388;SDS011;58659;49.050;8.530;2023-06-26T09:20:07;5.15;;;3.00;;
70388;SDS011;58659;49.050;8.530;2023-06-26T09:22:38;2.95;;;2.58;;
70388;SDS011;58659;49.050;8.530;2023-06-26T09:25:05;3.83;;;2.63;;
70388;SDS011;58659;49.050;8.530;2023-06-26T09:27:31;5.13;;;2.90;;
70388;SDS011;58659;49.050;8.530;2023-06-26T09:29:56;2.92;;;2.47;;
70388;SDS011;58659;49.050;8.530;2023-06-26T09:32:26;5.75;;;3.17;;
70388;SDS011;58659;49.050;8.530;2023-06-26T09:34:53;5.60;;;2.42;;
70388;SDS011;58659;49.050;8.530;2023-06-26T09:37:20;4.47;;;2.92;;
70388;SDS011;58659;49.050;8.530;2023-06-26T09:39:46;4.30;;;2.90;;
70388;SDS011;58659;49.050;8.530;2023-06-26T09:42:13;5.70;;;3.03;;
70388;SDS011;58659;49.050;8.530;2023-06-26T09:44:43;4.20;;;2.95;;
70388;SDS011;58659;49.050;8.530;2023-06-26T09:47:09;4.18;;;2.60;;
70388;SDS011;58659;49.050;8.530;2023-06-26T09:49:35;4.57;;;2.83;;
70388;SDS011;58659;49.050;8.530;2023-06-26T09:52:01;5.20;;;2.78;;
70388;SDS011;58659;49.050;8.530;2023-06-26T09:54:28;4.82;;;3.00;;
70388;SDS011;58659;49.050;8.530;2023-06-26T09:56:55;5.28;;;2.70;;
70388;SDS011;58659;49.050;8.530;2023-06-26T09:59:31;5.22;;;2.80;;
70388;SDS011;58659;49.050;8.530;2023-06-26T10:01:59;6.05;;;2.40;;
70388;SDS011;58659;49.050;8.530;2023-06-26T10:04:25;4.50;;;2.60;;
70388;SDS011;58659;49.050;8.530;2023-06-26T10:06:50;6.65;;;3.15;;
70388;SDS011;58659;49.050;8.530;2023-06-26T10:09:19;5.43;;;2.70;;
70388;SDS011;58659;49.050;8.530;2023-06-26T10:24:14;4.10;;;2.45;;
70388;SDS011;58659;49.050;8.530;2023-06-26T10:26:42;3.47;;;2.65;;
70388;SDS011;58659;49.050;8.530;2023-06-26T10:29:09;4.57;;;3.05;;
70388;SDS011;58659;49.050;8.530;2023-06-26T10:34:03;4.47;;;2.83;;
70388;SDS011;58659;49.050;8.530;2023-06-26T10:36:29;3.88;;;2.80;;
70388;SDS011;58659;49.050;8.530;2023-06-26T10:38:57;3.90;;;2.67;;
70388;SDS011;58659;49.050;8.530;2023-06-26T10:49:17;4.45;;;2.58;;
70388;SDS011;58659;49.050;8.530;2023-06-26T10:51:47;5.15;;;3.00;;
70388;SDS011;58659;49.050;8.530;2023-06-26T10:54:15;5.85;;;3.00;;
70388;SDS011;58659;49.050;8.530;2023-06-26T10:56:42;6.30;;;3.00;;
70388;SDS011;58659;49.050;8.530;2023-06-26T10:59:22;3.65;;;2.42;;
70388;SDS011;58659;49.050;8.530;2023-06-26T11:01:59;5.65;;;3.13;;
70388;SDS011;58659;49.050;8.530;2023-06-26T11:07:25;4.38;;;3.25;;
70388;SDS011;58659;49.050;8.530;2023-06-26T11:12:41;4.78;;;3.28;;
70388;SDS011;58659;49.050;8.530;2023-06-26T11:15:12;3.88;;;2.50;;
70388;SDS011;58659;49.050;8.530;2023-06-26T11:17:39;7.50;;;3.28;;
70388;SDS011;58659;49.050;8.530;2023-06-26T11:20:05;4.68;;;2.88;;
70388;SDS011;58659;49.050;8.530;2023-06-26T11:22:35;6.55;;;3.28;;
70388;SDS011;58659;49.050;8.530;2023-06-26T11:25:02;3.42;;;2.55;;
70388;SDS011;58659;49.050;8.530;2023-06-26T11:27:46;5.95;;;3.08;;
70388;SDS011;58659;49.050;8.530;2023-06-26T11:30:21;3.40;;;2.72;;
70388;SDS011;58659;49.050;8.530;2023-06-26T11:32:49;5.80;;;2.67;;
70388;SDS011;58659;49.050;8.530;2023-06-26T11:35:24;3.40;;;2.90;;
70388;SDS011;58659;49.050;8.530;2023-06-26T11:37:56;7.05;;;2.80;;
70388;SDS011;58659;49.050;8.530;2023-06-26T11:40:25;5.68;;;2.60;;
70388;SDS011;58659;49.050;8.530;2023-06-26T11:42:55;6.95;;;2.88;;
70388;SDS011;58659;49.050;8.530;2023-06-26T11:45:20;4.75;;;2.90;;
70388;SDS011;58659;49.050;8.530;2023-06-26T11:47:45;3.97;;;2.67;;
70388;SDS011;58659;49.050;8.530;2023-06-26T11:50:17;3.50;;;2.55;;
70388;SDS011;58659;49.050;8.530;2023-06-26T11:52:43;4.80;;;2.88;;
70388;SDS011;58659;49.050;8.530;2023-06-26T11:55:09;4.30;;;2.72;;
70388;SDS011;58659;49.050;8.530;2023-06-26T11:57:35;5.13;;;2.78;;
70388;SDS011;58659;49.050;8.530;2023-06-26T12:00:10;3.70;;;2.38;;
70388;SDS011;58659;49.050;8.530;2023-06-26T12:02:39;3.60;;;2.60;;
70388;SDS011;58659;49.050;8.530;2023-06-26T12:05:05;3.80;;;2.33;;
70388;SDS011;58659;49.050;8.530;2023-06-26T12:07:31;5.05;;;2.35;;
70388;SDS011;58659;49.050;8.530;2023-06-26T12:10:01;3.53;;;2.50;;
70388;SDS011;58659;49.050;8.530;2023-06-26T12:12:27;4.88;;;2.90;;
70388;SDS011;58659;49.050;8.530;2023-06-26T12:14:53;3.55;;;2.17;;
70388;SDS011;58659;49.050;8.530;2023-06-26T12:17:21;3.92;;;2.40;;
70388;SDS011;58659;49.050;8.530;2023-06-26T12:19:48;5.50;;;2.70;;
70388;SDS011;58659;49.050;8.530;2023-06-26T12:22:14;3.90;;;2.53;;
70388;SDS011;58659;49.050;8.530;2023-06-26T12:24:40;5.82;;;2.92;;
70388;SDS011;58659;49.050;8.530;2023-06-26T12:27:09;3.08;;;2.00;;
70388;SDS011;58659;49.050;8.530;2023-06-26T12:29:36;2.92;;;1.88;;
70388;SDS011;58659;49.050;8.530;2023-06-26T12:32:03;4.45;;;2.15;;
70388;SDS011;58659;49.050;8.530;2023-06-26T12:34:31;3.70;;;2.40;;
70388;SDS011;58659;49.050;8.530;2023-06-26T12:37:00;2.65;;;1.98;;
70388;SDS011;58659;49.050;8.530;2023-06-26T12:39:28;8.15;;;2.20;;
70388;SDS011;58659;49.050;8.530;2023-06-26T12:41:54;5.10;;;2.50;;
70388;SDS011;58659;49.050;8.530;2023-06-26T12:44:28;2.38;;;1.83;;
70388;SDS011;58659;49.050;8.530;2023-06-26T12:46:56;3.83;;;2.20;;
70388;SDS011;58659;49.050;8.530;2023-06-26T12:49:30;3.13;;;1.98;;
70388;SDS011;58659;49.050;8.530;2023-06-26T12:51:56;2.45;;;1.83;;
70388;SDS011;58659;49.050;8.530;2023-06-26T12:54:21;3.05;;;1.98;;
70388;SDS011;58659;49.050;8.530;2023-06-26T12:56:47;2.25;;;1.73;;
70388;SDS011;58659;49.050;8.530;2023-06-26T12:59:12;2.85;;;2.00;;
70388;SDS011;58659;49.050;8.530;2023-06-26T13:01:37;4.10;;;2.40;;
70388;SDS011;58659;49.050;8.530;2023-06-26T13:04:03;4.57;;;2.03;;
70388;SDS011;58659;49.050;8.530;2023-06-26T13:06:28;3.15;;;1.85;;
70388;SDS011;58659;49.050;8.530;2023-06-26T14:32:03;3.65;;;2.40;;
70388;SDS011;58659;49.050;8.530;2023-06-26T14:34:29;5.68;;;2.60;;
70388;SDS011;58659;49.050;8.530;2023-06-26T14:36:55;7.47;;;3.28;;
70388;SDS011;58659;49.050;8.530;2023-06-26T14:39:20;4.97;;;2.92;;
70388;SDS011;58659;49.050;8.530;2023-06-26T14:41:48;6.15;;;3.13;;
70388;SDS011;58659;49.050;8.530;2023-06-26T16:35:50;2.17;;;1.20;;
70388;SDS011;58659;49.050;8.530;2023-06-26T16:38:16;1.48;;;1.00;;
70388;SDS011;58659;49.050;8.530;2023-06-26T16:40:41;1.73;;;0.93;;
70388;SDS011;58659;49.050;8.530;2023-06-26T16:43:10;4.63;;;1.00;;
70388;SDS011;58659;49.050;8.530;2023-06-26T16:45:36;6.88;;;1.20;;
70388;SDS011;58659;49.050;8.530;2023-06-26T16:48:02;4.22;;;1.10;;
70388;SDS011;58659;49.050;8.530;2023-06-26T16:50:28;1.38;;;1.05;;
70388;SDS011;58659;49.050;8.530;2023-06-26T16:52:53;1.80;;;1.08;;
70388;SDS011;58659;49.050;8.530;2023-06-26T16:55:21;1.33;;;1.08;;
70388;SDS011;58659;49.050;8.530;2023-06-26T16:57:46;1.80;;;0.95;;
70388;SDS011;58659;49.050;8.530;2023-06-26T17:00:12;1.92;;;1.00;;
70388;SDS011;58659;49.050;8.530;2023-06-26T17:02:37;3.70;;;1.20;;
70388;SDS011;58659;49.050;8.530;2023-06-26T17:05:03;1.42;;;0.98;;
70388;SDS011;58659;49.050;8.530;2023-06-26T17:07:28;1.80;;;1.13;;
70388;SDS011;58659;49.050;8.530;2023-06-26T17:17:13;1.55;;;1.00;;
70388;SDS011;58659;49.050;8.530;2023-06-26T17:19:40;3.10;;;1.00;;
70388;SDS011;58659;49.050;8.530;2023-06-26T17:24:31;3.10;;;1.33;;
70388;SDS011;58659;49.050;8.530;2023-06-26T17:36:55;1.77;;;0.98;;
70388;SDS011;58659;49.050;8.530;2023-06-26T17:39:20;1.33;;;1.00;;
70388;SDS011;58659;49.050;8.530;2023-06-26T17:41:45;0.80;;;0.80;;
70388;SDS011;58659;49.050;8.530;2023-06-26T17:49:01;2.20;;;0.95;;
70388;SDS011;58659;49.050;8.530;2023-06-26T17:51:27;3.53;;;1.23;;
70388;SDS011;58659;49.050;8.530;2023-06-26T17:53:52;3.75;;;1.10;;
70388;SDS011;58659;49.050;8.530;2023-06-26T17:56:18;5.22;;;1.30;;
70388;SDS011;58659;49.050;8.530;2023-06-26T17:58:46;0.98;;;0.90;;
70388;SDS011;58659;49.050;8.530;2023-06-26T18:01:12;1.50;;;0.90;;
70388;SDS011;58659;49.050;8.530;2023-06-26T18:03:37;1.40;;;0.90;;
70388;SDS011;58659;49.050;8.530;2023-06-26T18:06:03;2.72;;;1.15;;
70388;SDS011;58659;49.050;8.530;2023-06-26T18:08:28;1.08;;;0.98;;
70388;SDS011;58659;49.050;8.530;2023-06-26T18:10:53;3.97;;;1.00;;
70388;SDS011;58659;49.050;8.530;2023-06-26T18:13:19;1.98;;;0.80;;
70388;SDS011;58659;49.050;8.530;2023-06-26T18:15:44;1.45;;;1.13;;
70388;SDS011;58659;49.050;8.530;2023-06-26T18:18:09;1.55;;;1.05;;
70388;SDS011;58659;49.050;8.530;2023-06-26T18:20:35;2.78;;;1.00;;
70388;SDS011;58659;49.050;8.530;2023-06-26T18:23:00;1.67;;;1.10;;
70388;SDS011;58659;49.050;8.530;2023-06-26T18:25:26;1.73;;;1.00;;
70388;SDS011;58659;49.050;8.530;2023-06-26T18:27:51;1.73;;;1.00;;
70388;SDS011;58659;49.050;8.530;2023-06-26T18:30:16;3.28;;;1.08;;
70388;SDS011;58659;49.050;8.530;2023-06-26T18:32:42;1.83;;;1.05;;
70388;SDS011;58659;49.050;8.530;2023-06-26T18:35:09;2.88;;;0.80;;
70388;SDS011;58659;49.050;8.530;2023-06-26T18:37:34;0.93;;;0.90;;
70388;SDS011;58659;49.050;8.530;2023-06-26T18:39:59;1.33;;;0.80;;
70388;SDS011;58659;49.050;8.530;2023-06-26T18:42:25;1.20;;;1.10;;
70388;SDS011;58659;49.050;8.530;2023-06-26T18:44:50;2.67;;;0.88;;
70388;SDS011;58659;49.050;8.530;2023-06-26T18:47:15;4.17;;;1.57;;
70388;SDS011;58659;49.050;8.530;2023-06-26T18:49:43;1.53;;;1.07;;
70388;SDS011;58659;49.050;8.530;2023-06-26T18:52:09;2.22;;;0.90;;
70388;SDS011;58659;49.050;8.530;2023-06-26T18:54:34;2.03;;;1.00;;
70388;SDS011;58659;49.050;8.530;2023-06-26T18:56:59;1.10;;;1.03;;
70388;SDS011;58659;49.050;8.530;2023-06-26T18:59:29;1.08;;;0.90;;
70388;SDS011;58659;49.050;8.530;2023-06-26T19:01:55;2.17;;;0.90;;
70388;SDS011;58659;49.050;8.530;2023-06-26T19:04:20;2.17;;;1.30;;
70388;SDS011;58659;49.050;8.530;2023-06-26T19:06:49;2.83;;;1.27;;
70388;SDS011;58659;49.050;8.530;2023-06-26T19:09:15;1.37;;;1.00;;
70388;SDS011;58659;49.050;8.530;2023-06-26T19:11:40;1.07;;;1.00;;
70388;SDS011;58659;49.050;8.530;2023-06-26T19:14:06;2.77;;;1.00;;
70388;SDS011;58659;49.050;8.530;2023-06-26T19:16:31;3.57;;;1.43;;
70388;SDS011;58659;49.050;8.530;2023-06-26T19:18:57;0.80;;;0.80;;